<?xml version="1.0" encoding="UTF-8" standalone="no" ?>
<gpx xmlns="http://www.topografix.com/GPX/1/1" xmlns:xsi="http://www.w3.org/2001/XMLSchema-instance" xsi:schemaLocation="http://www.topografix.com/GPX/1/1 http://www.topografix.com/GPX/1/1/gpx.xsd" version="1.1" creator="VisuGPX - https://www.visugpx.com">
  <metadata>
    <name>bellingwolde-weener</name>
  </metadata>
  <trk>
    <name><![CDATA[bellingwolde-weener]]></name>
    <trkseg>
      <trkpt lat="53.12756" lon="7.17919">
        <ele>-1.583654</ele>
        <time>2020-07-05T14:15:12.610Z</time>
      </trkpt>
      <trkpt lat="53.1274" lon="7.17951">
        <ele>-1.583654</ele>
        <time>2020-07-05T14:15:17.342Z</time>
      </trkpt>
      <trkpt lat="53.12676" lon="7.17979">
        <ele>-1.589428</ele>
        <time>2020-07-05T14:15:29.368Z</time>
      </trkpt>
      <trkpt lat="53.12671" lon="7.17988">
        <ele>-1.620253</ele>
        <time>2020-07-05T14:15:30.444Z</time>
      </trkpt>
      <trkpt lat="53.12666" lon="7.18022">
        <ele>-1.708645</ele>
        <time>2020-07-05T14:15:34.038Z</time>
      </trkpt>
      <trkpt lat="53.12667" lon="7.18029">
        <ele>-1.728501</ele>
        <time>2020-07-05T14:15:35.008Z</time>
      </trkpt>
      <trkpt lat="53.12668" lon="7.18033">
        <ele>-1.738179</ele>
        <time>2020-07-05T14:15:35.411Z</time>
      </trkpt>
      <trkpt lat="53.12674" lon="7.18087">
        <ele>-1.8789</ele>
        <time>2020-07-05T14:15:40.928Z</time>
      </trkpt>
      <trkpt lat="53.12675" lon="7.18091">
        <ele>-1.887742</ele>
        <time>2020-07-05T14:15:41.302Z</time>
      </trkpt>
      <trkpt lat="53.12675" lon="7.18094">
        <ele>-1.896083</ele>
        <time>2020-07-05T14:15:41.625Z</time>
      </trkpt>
      <trkpt lat="53.12676" lon="7.18105">
        <ele>-1.925298</ele>
        <time>2020-07-05T14:15:42.619Z</time>
      </trkpt>
      <trkpt lat="53.12673" lon="7.18131">
        <ele>-1.992865</ele>
        <time>2020-07-05T14:15:45.281Z</time>
      </trkpt>
      <trkpt lat="53.12651" lon="7.18201">
        <ele>-2.194525</ele>
        <time>2020-07-05T14:15:53.311Z</time>
      </trkpt>
      <trkpt lat="53.12645" lon="7.18219">
        <ele>-2.247073</ele>
        <time>2020-07-05T14:15:55.167Z</time>
      </trkpt>
      <trkpt lat="53.12598" lon="7.18341">
        <ele>-2.464352</ele>
        <time>2020-07-05T14:16:09.303Z</time>
      </trkpt>
      <trkpt lat="53.12593" lon="7.18341">
        <ele>-2.473126</ele>
        <time>2020-07-05T14:16:10.692Z</time>
      </trkpt>
      <trkpt lat="53.12394" lon="7.18845">
        <ele>-2.268928</ele>
        <time>2020-07-05T14:17:59.551Z</time>
      </trkpt>
      <trkpt lat="53.12396" lon="7.18856">
        <ele>-2.249367</ele>
        <time>2020-07-05T14:18:01.641Z</time>
      </trkpt>
      <trkpt lat="53.12388" lon="7.18878">
        <ele>-2.20391</ele>
        <time>2020-07-05T14:18:06.500Z</time>
      </trkpt>
      <trkpt lat="53.12381" lon="7.18879">
        <ele>-2.184726</ele>
        <time>2020-07-05T14:18:08.548Z</time>
      </trkpt>
      <trkpt lat="53.1231" lon="7.19061">
        <ele>-1.939253</ele>
        <time>2020-07-05T14:18:48.998Z</time>
      </trkpt>
      <trkpt lat="53.12303" lon="7.19091">
        <ele>-1.935543</ele>
        <time>2020-07-05T14:18:54.721Z</time>
      </trkpt>
      <trkpt lat="53.12308" lon="7.19145">
        <ele>-1.929162</ele>
        <time>2020-07-05T14:19:04.486Z</time>
      </trkpt>
      <trkpt lat="53.12309" lon="7.19158">
        <ele>-1.927703</ele>
        <time>2020-07-05T14:19:06.838Z</time>
      </trkpt>
      <trkpt lat="53.12321" lon="7.19179">
        <ele>-1.92433</ele>
        <time>2020-07-05T14:19:11.904Z</time>
      </trkpt>
      <trkpt lat="53.12362" lon="7.19215">
        <ele>-1.915453</ele>
        <time>2020-07-05T14:19:19.754Z</time>
      </trkpt>
      <trkpt lat="53.1235" lon="7.19259">
        <ele>-1.977723</ele>
        <time>2020-07-05T14:19:24.652Z</time>
      </trkpt>
      <trkpt lat="53.12125" lon="7.20139">
        <ele>-3.459864</ele>
        <time>2020-07-05T14:21:02.231Z</time>
      </trkpt>
      <trkpt lat="53.12119" lon="7.20238">
        <ele>-3.487932</ele>
        <time>2020-07-05T14:21:12.903Z</time>
      </trkpt>
      <trkpt lat="53.12132" lon="7.20326">
        <ele>-3.513648</ele>
        <time>2020-07-05T14:21:22.849Z</time>
      </trkpt>
      <trkpt lat="53.12205" lon="7.20633">
        <ele>-3.05693</ele>
        <time>2020-07-05T14:21:59.889Z</time>
      </trkpt>
      <trkpt lat="53.12226" lon="7.20742">
        <ele>-3.048725</ele>
        <time>2020-07-05T14:22:12.683Z</time>
      </trkpt>
      <trkpt lat="53.12248" lon="7.21005">
        <ele>-3.182371</ele>
        <time>2020-07-05T14:22:40.463Z</time>
      </trkpt>
      <trkpt lat="53.12253" lon="7.21042">
        <ele>-3.240554</ele>
        <time>2020-07-05T14:22:44.246Z</time>
      </trkpt>
      <trkpt lat="53.12263" lon="7.21118">
        <ele>-3.358816</ele>
        <time>2020-07-05T14:22:52.115Z</time>
      </trkpt>
      <trkpt lat="53.12281" lon="7.21189">
        <ele>-3.477843</ele>
        <time>2020-07-05T14:22:59.907Z</time>
      </trkpt>
      <trkpt lat="53.1233" lon="7.21357">
        <ele>-3.587874</ele>
        <time>2020-07-05T14:23:19.047Z</time>
      </trkpt>
      <trkpt lat="53.12516" lon="7.21975">
        <ele>-3.057163</ele>
        <time>2020-07-05T14:24:35.630Z</time>
      </trkpt>
      <trkpt lat="53.12519" lon="7.21999">
        <ele>-3.033668</ele>
        <time>2020-07-05T14:24:38.330Z</time>
      </trkpt>
      <trkpt lat="53.12525" lon="7.22092">
        <ele>-3.018734</ele>
        <time>2020-07-05T14:24:48.450Z</time>
      </trkpt>
      <trkpt lat="53.12546" lon="7.2243">
        <ele>-2.93794</ele>
        <time>2020-07-05T14:25:24.800Z</time>
      </trkpt>
      <trkpt lat="53.12552" lon="7.22516">
        <ele>-2.895839</ele>
        <time>2020-07-05T14:25:34.339Z</time>
      </trkpt>
      <trkpt lat="53.12574" lon="7.22862">
        <ele>-2.769712</ele>
        <time>2020-07-05T14:26:12.230Z</time>
      </trkpt>
      <trkpt lat="53.12575" lon="7.22879">
        <ele>-2.764229</ele>
        <time>2020-07-05T14:26:13.986Z</time>
      </trkpt>
      <trkpt lat="53.12613" lon="7.2353">
        <ele>-3.163088</ele>
        <time>2020-07-05T14:27:22.325Z</time>
      </trkpt>
      <trkpt lat="53.12627" lon="7.23763">
        <ele>-2.827729</ele>
        <time>2020-07-05T14:27:48.754Z</time>
      </trkpt>
      <trkpt lat="53.12633" lon="7.23855">
        <ele>-2.678084</ele>
        <time>2020-07-05T14:27:59.391Z</time>
      </trkpt>
      <trkpt lat="53.12649" lon="7.24101">
        <ele>-2.265211</ele>
        <time>2020-07-05T14:28:27.108Z</time>
      </trkpt>
      <trkpt lat="53.1266" lon="7.24179">
        <ele>-2.248225</ele>
        <time>2020-07-05T14:28:35.817Z</time>
      </trkpt>
      <trkpt lat="53.12709" lon="7.2446">
        <ele>-2.221476</ele>
        <time>2020-07-05T14:29:07.229Z</time>
      </trkpt>
      <trkpt lat="53.1275" lon="7.24697">
        <ele>-2.263285</ele>
        <time>2020-07-05T14:29:33.373Z</time>
      </trkpt>
      <trkpt lat="53.12752" lon="7.24712">
        <ele>-2.258725</ele>
        <time>2020-07-05T14:29:35.057Z</time>
      </trkpt>
      <trkpt lat="53.12792" lon="7.24948">
        <ele>-2.189012</ele>
        <time>2020-07-05T14:30:01.493Z</time>
      </trkpt>
      <trkpt lat="53.13008" lon="7.25836">
        <ele>-1.533654</ele>
        <time>2020-07-05T14:31:46.091Z</time>
      </trkpt>
      <trkpt lat="53.13058" lon="7.2604">
        <ele>-1.184854</ele>
        <time>2020-07-05T14:32:10.940Z</time>
      </trkpt>
      <trkpt lat="53.13137" lon="7.26373">
        <ele>-0.488462</ele>
        <time>2020-07-05T14:32:51.391Z</time>
      </trkpt>
      <trkpt lat="53.13155" lon="7.26443">
        <ele>-0.282369</ele>
        <time>2020-07-05T14:33:00.060Z</time>
      </trkpt>
      <trkpt lat="53.13181" lon="7.26549">
        <ele>0.02781</ele>
        <time>2020-07-05T14:33:13.331Z</time>
      </trkpt>
      <trkpt lat="53.13203" lon="7.26684">
        <ele>0.424961</ele>
        <time>2020-07-05T14:33:29.731Z</time>
      </trkpt>
      <trkpt lat="53.1321" lon="7.26778">
        <ele>0.715431</ele>
        <time>2020-07-05T14:33:41.263Z</time>
      </trkpt>
      <trkpt lat="53.13209" lon="7.26876">
        <ele>1.012733</ele>
        <time>2020-07-05T14:33:52.636Z</time>
      </trkpt>
      <trkpt lat="53.13203" lon="7.26933">
        <ele>1.168784</ele>
        <time>2020-07-05T14:33:59.292Z</time>
      </trkpt>
      <trkpt lat="53.13199" lon="7.26976">
        <ele>1.182725</ele>
        <time>2020-07-05T14:34:04.220Z</time>
      </trkpt>
      <trkpt lat="53.13191" lon="7.27049">
        <ele>1.206465</ele>
        <time>2020-07-05T14:34:12.392Z</time>
      </trkpt>
      <trkpt lat="53.13165" lon="7.27297">
        <ele>1.182322</ele>
        <time>2020-07-05T14:34:38.831Z</time>
      </trkpt>
      <trkpt lat="53.13162" lon="7.27326">
        <ele>1.152432</ele>
        <time>2020-07-05T14:34:41.797Z</time>
      </trkpt>
      <trkpt lat="53.1315" lon="7.27433">
        <ele>1.039528</ele>
        <time>2020-07-05T14:34:53.042Z</time>
      </trkpt>
      <trkpt lat="53.13134" lon="7.27533">
        <ele>0.955672</ele>
        <time>2020-07-05T14:35:03.842Z</time>
      </trkpt>
      <trkpt lat="53.13095" lon="7.27692">
        <ele>0.982054</ele>
        <time>2020-07-05T14:35:22.020Z</time>
      </trkpt>
      <trkpt lat="53.13036" lon="7.28247">
        <ele>1.467782</ele>
        <time>2020-07-05T14:36:24.229Z</time>
      </trkpt>
      <trkpt lat="53.13025" lon="7.28348">
        <ele>1.602818</ele>
        <time>2020-07-05T14:36:35.402Z</time>
      </trkpt>
      <trkpt lat="53.1299" lon="7.28689">
        <ele>2.634655</ele>
        <time>2020-07-05T14:37:15.577Z</time>
      </trkpt>
      <trkpt lat="53.12967" lon="7.28904">
        <ele>3.773115</ele>
        <time>2020-07-05T14:37:43.522Z</time>
      </trkpt>
      <trkpt lat="53.12954" lon="7.29024">
        <ele>4.214584</ele>
        <time>2020-07-05T14:37:58.214Z</time>
      </trkpt>
      <trkpt lat="53.12953" lon="7.29075">
        <ele>4.262855</ele>
        <time>2020-07-05T14:38:04.168Z</time>
      </trkpt>
      <trkpt lat="53.12949" lon="7.29134">
        <ele>4.318851</ele>
        <time>2020-07-05T14:38:10.802Z</time>
      </trkpt>
      <trkpt lat="53.12949" lon="7.29146">
        <ele>4.329532</ele>
        <time>2020-07-05T14:38:11.987Z</time>
      </trkpt>
      <trkpt lat="53.12948" lon="7.29227">
        <ele>4.405702</ele>
        <time>2020-07-05T14:38:20.539Z</time>
      </trkpt>
      <trkpt lat="53.12907" lon="7.29496">
        <ele>3.968581</ele>
        <time>2020-07-05T14:38:48.629Z</time>
      </trkpt>
      <trkpt lat="53.1289" lon="7.29599">
        <ele>3.672874</ele>
        <time>2020-07-05T14:38:59.327Z</time>
      </trkpt>
      <trkpt lat="53.12884" lon="7.29635">
        <ele>3.516435</ele>
        <time>2020-07-05T14:39:03.234Z</time>
      </trkpt>
      <trkpt lat="53.12883" lon="7.29647">
        <ele>3.462562</ele>
        <time>2020-07-05T14:39:04.500Z</time>
      </trkpt>
      <trkpt lat="53.12878" lon="7.29679">
        <ele>3.323516</ele>
        <time>2020-07-05T14:39:07.812Z</time>
      </trkpt>
      <trkpt lat="53.12874" lon="7.2971">
        <ele>3.191739</ele>
        <time>2020-07-05T14:39:10.959Z</time>
      </trkpt>
      <trkpt lat="53.12873" lon="7.29717">
        <ele>3.161327</ele>
        <time>2020-07-05T14:39:11.647Z</time>
      </trkpt>
      <trkpt lat="53.12873" lon="7.29721">
        <ele>3.146395</ele>
        <time>2020-07-05T14:39:12.023Z</time>
      </trkpt>
      <trkpt lat="53.12869" lon="7.29749">
        <ele>3.026533</ele>
        <time>2020-07-05T14:39:14.956Z</time>
      </trkpt>
      <trkpt lat="53.12851" lon="7.29874">
        <ele>2.504463</ele>
        <time>2020-07-05T14:39:27.751Z</time>
      </trkpt>
      <trkpt lat="53.1285" lon="7.29885">
        <ele>2.469525</ele>
        <time>2020-07-05T14:39:28.800Z</time>
      </trkpt>
      <trkpt lat="53.12841" lon="7.29964">
        <ele>2.225291</ele>
        <time>2020-07-05T14:39:36.860Z</time>
      </trkpt>
      <trkpt lat="53.12768" lon="7.3054">
        <ele>0.985627</ele>
        <time>2020-07-05T14:40:39.066Z</time>
      </trkpt>
      <trkpt lat="53.12766" lon="7.30642">
        <ele>0.890636</ele>
        <time>2020-07-05T14:40:49.802Z</time>
      </trkpt>
      <trkpt lat="53.12776" lon="7.30801">
        <ele>1.110098</ele>
        <time>2020-07-05T14:41:08.305Z</time>
      </trkpt>
      <trkpt lat="53.12776" lon="7.3082">
        <ele>1.210465</ele>
        <time>2020-07-05T14:41:10.637Z</time>
      </trkpt>
      <trkpt lat="53.12776" lon="7.30828">
        <ele>1.254776</ele>
        <time>2020-07-05T14:41:11.687Z</time>
      </trkpt>
      <trkpt lat="53.12776" lon="7.30831">
        <ele>1.272394</ele>
        <time>2020-07-05T14:41:12.076Z</time>
      </trkpt>
      <trkpt lat="53.12774" lon="7.30862">
        <ele>1.435975</ele>
        <time>2020-07-05T14:41:15.809Z</time>
      </trkpt>
      <trkpt lat="53.12769" lon="7.30902">
        <ele>1.653607</ele>
        <time>2020-07-05T14:41:21.123Z</time>
      </trkpt>
      <trkpt lat="53.12715" lon="7.31337">
        <ele>4.589144</ele>
        <time>2020-07-05T14:42:21.838Z</time>
      </trkpt>
      <trkpt lat="53.1271" lon="7.31373">
        <ele>4.64927</ele>
        <time>2020-07-05T14:42:26.646Z</time>
      </trkpt>
      <trkpt lat="53.12707" lon="7.31387">
        <ele>4.67266</ele>
        <time>2020-07-05T14:42:28.308Z</time>
      </trkpt>
      <trkpt lat="53.12657" lon="7.31583">
        <ele>5.017493</ele>
        <time>2020-07-05T14:42:52.749Z</time>
      </trkpt>
      <trkpt lat="53.1265" lon="7.31613">
        <ele>5.057675</ele>
        <time>2020-07-05T14:42:56.093Z</time>
      </trkpt>
      <trkpt lat="53.12642" lon="7.31684">
        <ele>4.876732</ele>
        <time>2020-07-05T14:43:03.902Z</time>
      </trkpt>
      <trkpt lat="53.12639" lon="7.31716">
        <ele>4.797223</ele>
        <time>2020-07-05T14:43:07.209Z</time>
      </trkpt>
      <trkpt lat="53.12637" lon="7.31743">
        <ele>4.729528</ele>
        <time>2020-07-05T14:43:10.142Z</time>
      </trkpt>
      <trkpt lat="53.12633" lon="7.31782">
        <ele>4.630437</ele>
        <time>2020-07-05T14:43:14.240Z</time>
      </trkpt>
      <trkpt lat="53.12684" lon="7.31792">
        <ele>4.416991</ele>
        <time>2020-07-05T14:43:22.682Z</time>
      </trkpt>
      <trkpt lat="53.12711" lon="7.31796">
        <ele>4.302678</ele>
        <time>2020-07-05T14:43:27.091Z</time>
      </trkpt>
      <trkpt lat="53.1273" lon="7.31788">
        <ele>4.20681</ele>
        <time>2020-07-05T14:43:30.295Z</time>
      </trkpt>
      <trkpt lat="53.12737" lon="7.31789">
        <ele>4.174721</ele>
        <time>2020-07-05T14:43:31.399Z</time>
      </trkpt>
      <trkpt lat="53.12764" lon="7.31794">
        <ele>4.047438</ele>
        <time>2020-07-05T14:43:35.755Z</time>
      </trkpt>
      <trkpt lat="53.12783" lon="7.31799">
        <ele>3.953421</ele>
        <time>2020-07-05T14:43:39.024Z</time>
      </trkpt>
      <trkpt lat="53.12796" lon="7.318">
        <ele>3.892184</ele>
        <time>2020-07-05T14:43:41.149Z</time>
      </trkpt>
      <trkpt lat="53.12822" lon="7.31799">
        <ele>3.766612</ele>
        <time>2020-07-05T14:43:45.513Z</time>
      </trkpt>
      <trkpt lat="53.12846" lon="7.31802">
        <ele>3.652236</ele>
        <time>2020-07-05T14:43:49.550Z</time>
      </trkpt>
      <trkpt lat="53.12857" lon="7.31804">
        <ele>3.597957</ele>
        <time>2020-07-05T14:43:51.374Z</time>
      </trkpt>
      <trkpt lat="53.12861" lon="7.318">
        <ele>3.577534</ele>
        <time>2020-07-05T14:43:52.571Z</time>
      </trkpt>
      <trkpt lat="53.12879" lon="7.31796">
        <ele>3.491866</ele>
        <time>2020-07-05T14:43:57.725Z</time>
      </trkpt>
      <trkpt lat="53.12882" lon="7.31799">
        <ele>3.473633</ele>
        <time>2020-07-05T14:43:58.796Z</time>
      </trkpt>
      <trkpt lat="53.12887" lon="7.31806">
        <ele>3.464391</ele>
        <time>2020-07-05T14:44:00.499Z</time>
      </trkpt>
      <trkpt lat="53.12889" lon="7.31811">
        <ele>3.467118</ele>
        <time>2020-07-05T14:44:01.667Z</time>
      </trkpt>
      <trkpt lat="53.12893" lon="7.3182">
        <ele>3.471087</ele>
        <time>2020-07-05T14:44:03.421Z</time>
      </trkpt>
      <trkpt lat="53.12899" lon="7.31825">
        <ele>3.475454</ele>
        <time>2020-07-05T14:44:04.567Z</time>
      </trkpt>
      <trkpt lat="53.12937" lon="7.31832">
        <ele>3.500457</ele>
        <time>2020-07-05T14:44:11.121Z</time>
      </trkpt>
      <trkpt lat="53.12939" lon="7.31841">
        <ele>3.504095</ele>
        <time>2020-07-05T14:44:12.118Z</time>
      </trkpt>
      <trkpt lat="53.12947" lon="7.31839">
        <ele>3.509288</ele>
        <time>2020-07-05T14:44:13.445Z</time>
      </trkpt>
      <trkpt lat="53.13144" lon="7.31871">
        <ele>3.88452</ele>
        <time>2020-07-05T14:44:50.868Z</time>
      </trkpt>
      <trkpt lat="53.13262" lon="7.31943">
        <ele>4.308264</ele>
        <time>2020-07-05T14:45:14.465Z</time>
      </trkpt>
      <trkpt lat="53.13284" lon="7.31958">
        <ele>4.389668</ele>
        <time>2020-07-05T14:45:18.892Z</time>
      </trkpt>
      <trkpt lat="53.13287" lon="7.31961">
        <ele>4.402202</ele>
        <time>2020-07-05T14:45:19.567Z</time>
      </trkpt>
      <trkpt lat="53.13302" lon="7.31974">
        <ele>4.459579</ele>
        <time>2020-07-05T14:45:22.784Z</time>
      </trkpt>
      <trkpt lat="53.13329" lon="7.32002">
        <ele>4.568062</ele>
        <time>2020-07-05T14:45:28.760Z</time>
      </trkpt>
      <trkpt lat="53.13334" lon="7.32008">
        <ele>4.592345</ele>
        <time>2020-07-05T14:45:30.096Z</time>
      </trkpt>
      <trkpt lat="53.13349" lon="7.32026">
        <ele>4.653885</ele>
        <time>2020-07-05T14:45:33.426Z</time>
      </trkpt>
      <trkpt lat="53.13367" lon="7.32047">
        <ele>4.731308</ele>
        <time>2020-07-05T14:45:37.736Z</time>
      </trkpt>
      <trkpt lat="53.13379" lon="7.32058">
        <ele>4.776235</ele>
        <time>2020-07-05T14:45:40.180Z</time>
      </trkpt>
      <trkpt lat="53.13396" lon="7.32073">
        <ele>4.829175</ele>
        <time>2020-07-05T14:45:43.963Z</time>
      </trkpt>
      <trkpt lat="53.13415" lon="7.32087">
        <ele>4.875198</ele>
        <time>2020-07-05T14:45:47.924Z</time>
      </trkpt>
      <trkpt lat="53.13428" lon="7.32095">
        <ele>4.904688</ele>
        <time>2020-07-05T14:45:50.390Z</time>
      </trkpt>
      <trkpt lat="53.13487" lon="7.32132">
        <ele>5.045151</ele>
        <time>2020-07-05T14:46:02.091Z</time>
      </trkpt>
      <trkpt lat="53.13494" lon="7.32137">
        <ele>5.061762</ele>
        <time>2020-07-05T14:46:03.515Z</time>
      </trkpt>
      <trkpt lat="53.13502" lon="7.32144">
        <ele>5.082346</ele>
        <time>2020-07-05T14:46:05.215Z</time>
      </trkpt>
      <trkpt lat="53.13507" lon="7.32148">
        <ele>5.094024</ele>
        <time>2020-07-05T14:46:06.194Z</time>
      </trkpt>
      <trkpt lat="53.13521" lon="7.32163">
        <ele>5.1301</ele>
        <time>2020-07-05T14:46:09.265Z</time>
      </trkpt>
      <trkpt lat="53.13541" lon="7.32193">
        <ele>5.190121</ele>
        <time>2020-07-05T14:46:14.311Z</time>
      </trkpt>
      <trkpt lat="53.13565" lon="7.32232">
        <ele>5.113147</ele>
        <time>2020-07-05T14:46:20.327Z</time>
      </trkpt>
      <trkpt lat="53.13579" lon="7.32255">
        <ele>5.052837</ele>
        <time>2020-07-05T14:46:23.739Z</time>
      </trkpt>
      <trkpt lat="53.13606" lon="7.32277">
        <ele>4.962222</ele>
        <time>2020-07-05T14:46:28.895Z</time>
      </trkpt>
      <trkpt lat="53.1365" lon="7.32304">
        <ele>4.818864</ele>
        <time>2020-07-05T14:46:36.843Z</time>
      </trkpt>
      <trkpt lat="53.13655" lon="7.32308">
        <ele>4.80172</ele>
        <time>2020-07-05T14:46:37.768Z</time>
      </trkpt>
      <trkpt lat="53.13658" lon="7.32309">
        <ele>4.793226</ele>
        <time>2020-07-05T14:46:38.226Z</time>
      </trkpt>
      <trkpt lat="53.13682" lon="7.32324">
        <ele>4.716318</ele>
        <time>2020-07-05T14:46:42.351Z</time>
      </trkpt>
      <trkpt lat="53.13739" lon="7.32374">
        <ele>4.230004</ele>
        <time>2020-07-05T14:46:52.770Z</time>
      </trkpt>
      <trkpt lat="53.13767" lon="7.32407">
        <ele>3.906892</ele>
        <time>2020-07-05T14:46:58.155Z</time>
      </trkpt>
      <trkpt lat="53.13777" lon="7.32419">
        <ele>3.787609</ele>
        <time>2020-07-05T14:47:00.116Z</time>
      </trkpt>
      <trkpt lat="53.13783" lon="7.32427">
        <ele>3.71344</ele>
        <time>2020-07-05T14:47:01.339Z</time>
      </trkpt>
      <trkpt lat="53.13798" lon="7.32448">
        <ele>3.526766</ele>
        <time>2020-07-05T14:47:04.449Z</time>
      </trkpt>
      <trkpt lat="53.13819" lon="7.32483">
        <ele>3.240776</ele>
        <time>2020-07-05T14:47:09.103Z</time>
      </trkpt>
      <trkpt lat="53.13825" lon="7.32492">
        <ele>3.167863</ele>
        <time>2020-07-05T14:47:10.226Z</time>
      </trkpt>
      <trkpt lat="53.13877" lon="7.32582">
        <ele>2.20607</ele>
        <time>2020-07-05T14:47:21.263Z</time>
      </trkpt>
      <trkpt lat="53.13893" lon="7.32623">
        <ele>1.79361</ele>
        <time>2020-07-05T14:47:25.436Z</time>
      </trkpt>
      <trkpt lat="53.13912" lon="7.32683">
        <ele>1.211343</ele>
        <time>2020-07-05T14:47:31.367Z</time>
      </trkpt>
      <trkpt lat="53.13917" lon="7.3268">
        <ele>1.137788</ele>
        <time>2020-07-05T14:47:32.652Z</time>
      </trkpt>
      <trkpt lat="53.13928" lon="7.32703">
        <ele>0.881809</ele>
        <time>2020-07-05T14:47:37.289Z</time>
      </trkpt>
      <trkpt lat="53.13935" lon="7.32743">
        <ele>0.525049</ele>
        <time>2020-07-05T14:47:44.015Z</time>
      </trkpt>
      <trkpt lat="53.13937" lon="7.32746">
        <ele>0.490865</ele>
        <time>2020-07-05T14:47:44.571Z</time>
      </trkpt>
      <trkpt lat="53.13941" lon="7.32753">
        <ele>0.408136</ele>
        <time>2020-07-05T14:47:46.019Z</time>
      </trkpt>
      <trkpt lat="53.14019" lon="7.3295">
        <ele>-0.345063</ele>
        <time>2020-07-05T14:48:25.350Z</time>
      </trkpt>
      <trkpt lat="53.14178" lon="7.33129">
        <ele>-0.090614</ele>
        <time>2020-07-05T14:49:25.062Z</time>
      </trkpt>
      <trkpt lat="53.14344" lon="7.33273">
        <ele>0.163532</ele>
        <time>2020-07-05T14:50:21.196Z</time>
      </trkpt>
      <trkpt lat="53.14361" lon="7.33276">
        <ele>0.181115</ele>
        <time>2020-07-05T14:50:26.275Z</time>
      </trkpt>
      <trkpt lat="53.14436" lon="7.33318">
        <ele>0.112283</ele>
        <time>2020-07-05T14:50:49.508Z</time>
      </trkpt>
      <trkpt lat="53.14483" lon="7.3333">
        <ele>0.063803</ele>
        <time>2020-07-05T14:51:03.684Z</time>
      </trkpt>
      <trkpt lat="53.1452" lon="7.33338">
        <ele>0.026835</ele>
        <time>2020-07-05T14:51:14.384Z</time>
      </trkpt>
      <trkpt lat="53.14523" lon="7.33339">
        <ele>0.023187</ele>
        <time>2020-07-05T14:51:15.310Z</time>
      </trkpt>
      <trkpt lat="53.14782" lon="7.33388">
        <ele>0.042996</ele>
        <time>2020-07-05T14:52:31.046Z</time>
      </trkpt>
      <trkpt lat="53.14811" lon="7.33394">
        <ele>0.234518</ele>
        <time>2020-07-05T14:52:40.028Z</time>
      </trkpt>
      <trkpt lat="53.14822" lon="7.33396">
        <ele>0.307549</ele>
        <time>2020-07-05T14:52:43.769Z</time>
      </trkpt>
      <trkpt lat="53.15036" lon="7.3343">
        <ele>2.921176</ele>
        <time>2020-07-05T14:53:57.193Z</time>
      </trkpt>
      <trkpt lat="53.15072" lon="7.33437">
        <ele>3.475796</ele>
        <time>2020-07-05T14:54:10.035Z</time>
      </trkpt>
      <trkpt lat="53.15087" lon="7.33439">
        <ele>3.69337</ele>
        <time>2020-07-05T14:54:15.703Z</time>
      </trkpt>
      <trkpt lat="53.15213" lon="7.33473">
        <ele>5.424242</ele>
        <time>2020-07-05T14:54:59.974Z</time>
      </trkpt>
      <trkpt lat="53.15262" lon="7.33501">
        <ele>5.994726</ele>
        <time>2020-07-05T14:55:16.780Z</time>
      </trkpt>
      <trkpt lat="53.153" lon="7.33537">
        <ele>5.980957</ele>
        <time>2020-07-05T14:55:30.087Z</time>
      </trkpt>
      <trkpt lat="53.15352" lon="7.33609">
        <ele>5.959411</ele>
        <time>2020-07-05T14:55:50.060Z</time>
      </trkpt>
      <trkpt lat="53.15536" lon="7.33907">
        <ele>4.861165</ele>
        <time>2020-07-05T14:57:01.796Z</time>
      </trkpt>
      <trkpt lat="53.15533" lon="7.33914">
        <ele>4.847531</ele>
        <time>2020-07-05T14:57:03.155Z</time>
      </trkpt>
      <trkpt lat="53.1554" lon="7.33925">
        <ele>4.823048</ele>
        <time>2020-07-05T14:57:04.709Z</time>
      </trkpt>
      <trkpt lat="53.15555" lon="7.33947">
        <ele>4.771073</ele>
        <time>2020-07-05T14:57:08.412Z</time>
      </trkpt>
      <trkpt lat="53.15567" lon="7.33966">
        <ele>4.728503</ele>
        <time>2020-07-05T14:57:11.003Z</time>
      </trkpt>
      <trkpt lat="53.1563" lon="7.34063">
        <ele>4.504533</ele>
        <time>2020-07-05T14:57:26.124Z</time>
      </trkpt>
      <trkpt lat="53.15675" lon="7.3414">
        <ele>4.36366</ele>
        <time>2020-07-05T14:57:37.338Z</time>
      </trkpt>
      <trkpt lat="53.15742" lon="7.34249">
        <ele>4.184433</ele>
        <time>2020-07-05T14:57:53.403Z</time>
      </trkpt>
      <trkpt lat="53.15776" lon="7.34305">
        <ele>4.093159</ele>
        <time>2020-07-05T14:58:01.436Z</time>
      </trkpt>
      <trkpt lat="53.15787" lon="7.34323">
        <ele>4.086656</ele>
        <time>2020-07-05T14:58:04.191Z</time>
      </trkpt>
      <trkpt lat="53.15798" lon="7.34339">
        <ele>4.080743</ele>
        <time>2020-07-05T14:58:06.731Z</time>
      </trkpt>
      <trkpt lat="53.15878" lon="7.34469">
        <ele>4.035392</ele>
        <time>2020-07-05T14:58:27.133Z</time>
      </trkpt>
      <trkpt lat="53.15945" lon="7.34579">
        <ele>3.741001</ele>
        <time>2020-07-05T14:58:43.369Z</time>
      </trkpt>
      <trkpt lat="53.15957" lon="7.34601">
        <ele>3.654841</ele>
        <time>2020-07-05T14:58:46.190Z</time>
      </trkpt>
      <trkpt lat="53.15965" lon="7.34617">
        <ele>3.589501</ele>
        <time>2020-07-05T14:58:48.323Z</time>
      </trkpt>
      <trkpt lat="53.15976" lon="7.34635">
        <ele>3.516583</ele>
        <time>2020-07-05T14:58:50.592Z</time>
      </trkpt>
      <trkpt lat="53.15983" lon="7.34642">
        <ele>3.474447</ele>
        <time>2020-07-05T14:58:52.011Z</time>
      </trkpt>
      <trkpt lat="53.15989" lon="7.34646">
        <ele>3.43994</ele>
        <time>2020-07-05T14:58:53.113Z</time>
      </trkpt>
      <trkpt lat="53.15999" lon="7.3465">
        <ele>3.392627</ele>
        <time>2020-07-05T14:58:54.651Z</time>
      </trkpt>
      <trkpt lat="53.15998" lon="7.34662">
        <ele>3.356756</ele>
        <time>2020-07-05T14:58:55.744Z</time>
      </trkpt>
      <trkpt lat="53.15999" lon="7.34676">
        <ele>3.315944</ele>
        <time>2020-07-05T14:58:57.222Z</time>
      </trkpt>
      <trkpt lat="53.16043" lon="7.34821">
        <ele>2.904697</ele>
        <time>2020-07-05T14:59:13.880Z</time>
      </trkpt>
      <trkpt lat="53.16056" lon="7.34876">
        <ele>2.771573</ele>
        <time>2020-07-05T14:59:19.978Z</time>
      </trkpt>
      <trkpt lat="53.16064" lon="7.34892">
        <ele>2.72403</ele>
        <time>2020-07-05T14:59:22.122Z</time>
      </trkpt>
      <trkpt lat="53.16085" lon="7.34911">
        <ele>2.633758</ele>
        <time>2020-07-05T14:59:26.461Z</time>
      </trkpt>
      <trkpt lat="53.16133" lon="7.34962">
        <ele>2.453409</ele>
        <time>2020-07-05T14:59:36.691Z</time>
      </trkpt>
      <trkpt lat="53.16167" lon="7.35004">
        <ele>2.465649</ele>
        <time>2020-07-05T14:59:44.553Z</time>
      </trkpt>
      <trkpt lat="53.16173" lon="7.3501">
        <ele>2.467966</ele>
        <time>2020-07-05T14:59:46.091Z</time>
      </trkpt>
      <trkpt lat="53.16179" lon="7.35019">
        <ele>2.470312</ele>
        <time>2020-07-05T14:59:47.528Z</time>
      </trkpt>
      <trkpt lat="53.16201" lon="7.35048">
        <ele>2.478418</ele>
        <time>2020-07-05T14:59:52.971Z</time>
      </trkpt>
      <trkpt lat="53.16209" lon="7.35059">
        <ele>2.481406</ele>
        <time>2020-07-05T14:59:54.797Z</time>
      </trkpt>
      <trkpt lat="53.16241" lon="7.35109">
        <ele>2.49439</ele>
        <time>2020-07-05T15:00:02.943Z</time>
      </trkpt>
      <trkpt lat="53.16249" lon="7.35121">
        <ele>2.497568</ele>
        <time>2020-07-05T15:00:04.973Z</time>
      </trkpt>
      <trkpt lat="53.16314" lon="7.35229">
        <ele>2.503751</ele>
        <time>2020-07-05T15:00:22.115Z</time>
      </trkpt>
      <trkpt lat="53.16332" lon="7.35261">
        <ele>2.503751</ele>
        <time>2020-07-05T15:00:27.228Z</time>
      </trkpt>
      <trkpt lat="53.16346" lon="7.35288">
        <ele>2.503751</ele>
        <time>2020-07-05T15:00:31.330Z</time>
      </trkpt>
      <trkpt lat="53.16387" lon="7.35383">
        <ele>2.503751</ele>
        <time>2020-07-05T15:00:45.352Z</time>
      </trkpt>
      <trkpt lat="53.16408" lon="7.35424">
        <ele>2.503751</ele>
        <time>2020-07-05T15:00:51.757Z</time>
      </trkpt>
      <trkpt lat="53.16422" lon="7.35443">
        <ele>2.503751</ele>
        <time>2020-07-05T15:00:55.350Z</time>
      </trkpt>
    </trkseg>
  </trk>
</gpx>